createdAt,value
2019-05-29T00:00:25.857Z,96390.70
2019-05-29T00:02:51.682Z,96384.09
2019-05-29T00:05:18.425Z,96386.73
2019-05-29T00:07:44.383Z,96387.14
2019-05-29T00:10:10.587Z,96393.06
2019-05-29T00:12:36.562Z,96398.02
2019-05-29T00:15:03.312Z,96393.72
2019-05-29T00:17:29.168Z,96389.64
2019-05-29T00:19:55.012Z,96388.93
2019-05-29T00:22:20.851Z,96397.30
2019-05-29T00:24:46.709Z,96393.29
2019-05-29T00:27:15.401Z,96392.03
2019-05-29T00:29:40.326Z,96394.67
2019-05-29T00:32:06.850Z,96394.67
2019-05-29T00:34:32.837Z,96393.90
2019-05-29T00:36:58.684Z,96393.98
2019-05-29T00:39:24.541Z,96394.21
2019-05-29T00:41:50.376Z,96394.77
2019-05-29T00:44:17.374Z,96399.50
2019-05-29T00:46:43.414Z,96399.84
2019-05-29T00:49:09.698Z,96399.84
2019-05-29T00:51:35.598Z,96402.84
2019-05-29T00:54:01.610Z,96402.84
2019-05-29T00:56:27.387Z,96404.03
2019-05-29T00:58:53.211Z,96397.97
2019-05-29T01:01:20.659Z,96408.65
2019-05-29T01:03:46.514Z,96406.61
2019-05-29T01:06:12.381Z,96410.52
2019-05-29T01:08:38.238Z,96405.17
2019-05-29T01:11:04.158Z,96417.55
2019-05-29T01:13:30.070Z,96417.11
2019-05-29T01:15:55.924Z,96419.20
2019-05-29T01:18:22.354Z,96424.85
2019-05-29T01:20:48.344Z,96422.45
2019-05-29T01:23:14.231Z,96420.38
2019-05-29T01:25:40.038Z,96426.91
2019-05-29T01:28:05.893Z,96427.20
2019-05-29T01:30:31.777Z,96436.20
2019-05-29T01:32:57.722Z,96437.55
2019-05-29T01:35:24.162Z,96445.92
2019-05-29T01:37:50.171Z,96457.05
2019-05-29T01:40:22.177Z,96457.05
2019-05-29T01:42:43.802Z,96450.15
2019-05-29T01:45:09.738Z,96455.23
2019-05-29T01:47:35.694Z,96456.78
2019-05-29T01:50:01.631Z,96462.23
2019-05-29T01:52:28.082Z,96456.73
2019-05-29T01:54:54.023Z,96462.69
2019-05-29T01:57:19.877Z,96459.71
2019-05-29T01:59:45.705Z,96467.15
2019-05-29T02:02:11.557Z,96469.00
2019-05-29T02:04:37.405Z,96470.81
2019-05-29T02:07:03.961Z,96478.58
2019-05-29T02:09:29.816Z,96484.66
2019-05-29T02:11:55.672Z,96486.08
2019-05-29T02:14:22.668Z,96489.05
2019-05-29T02:16:48.600Z,96491.02
2019-05-29T02:19:15.648Z,96491.02
2019-05-29T02:21:41.707Z,96483.26
2019-05-29T02:24:07.557Z,96483.26
2019-05-29T02:26:33.390Z,96492.66
2019-05-29T02:28:59.256Z,96458.43
2019-05-29T02:31:27.007Z,96500.30
2019-05-29T02:33:52.876Z,96493.90
2019-05-29T02:36:20.354Z,96490.70
2019-05-29T02:38:46.470Z,96492.67
2019-05-29T02:41:12.330Z,96499.19
2019-05-29T02:43:38.293Z,96501.25
2019-05-29T02:46:04.138Z,96501.77
2019-05-29T02:48:31.614Z,96502.77
2019-05-29T02:50:57.754Z,96498.93
2019-05-29T02:53:24.490Z,96498.93
2019-05-29T02:55:50.537Z,96512.97
2019-05-29T02:58:16.382Z,96512.97
2019-05-29T03:00:52.339Z,96518.55
2019-05-29T03:03:19.491Z,96522.22
2019-05-29T03:05:46.372Z,96521.72
2019-05-29T03:08:12.356Z,96524.28
2019-05-29T03:10:38.184Z,96524.28
2019-05-29T03:13:04.039Z,96527.61
2019-05-29T03:15:31.502Z,96528.78
2019-05-29T03:17:57.426Z,96537.80
2019-05-29T03:20:23.917Z,96540.12
2019-05-29T03:22:49.935Z,96550.72
2019-05-29T03:25:15.781Z,96541.53
2019-05-29T03:27:41.604Z,96552.41
2019-05-29T03:30:07.588Z,96553.47
2019-05-29T03:32:41.701Z,96565.20
2019-05-29T03:35:01.215Z,96571.81
2019-05-29T03:37:28.232Z,96571.81
2019-05-29T03:39:54.218Z,96564.66
2019-05-29T03:42:20.142Z,96564.66
2019-05-29T03:44:45.982Z,96573.95
2019-05-29T03:47:11.861Z,96572.72
2019-05-29T03:49:37.721Z,96574.15
2019-05-29T03:52:04.089Z,96584.94
2019-05-29T03:54:30.796Z,96587.13
2019-05-29T03:56:57.715Z,96585.34
2019-05-29T03:59:23.579Z,96585.34
2019-05-29T04:01:49.436Z,96589.61
2019-05-29T04:04:15.293Z,96596.00
2019-05-29T04:06:41.116Z,96599.95
2019-05-29T04:09:06.993Z,96599.55
2019-05-29T04:11:35.554Z,96599.17
2019-05-29T04:14:01.549Z,96589.72
2019-05-29T04:16:27.816Z,96589.72
2019-05-29T04:18:54.252Z,96607.42
2019-05-29T04:21:21.348Z,96607.42
2019-05-29T04:23:48.444Z,96614.70
2019-05-29T04:26:15.309Z,96625.00
2019-05-29T04:28:41.360Z,96625.00
2019-05-29T04:31:07.303Z,96623.14
2019-05-29T04:33:34.908Z,96628.31
2019-05-29T04:36:00.951Z,96631.55
2019-05-29T04:38:28.526Z,96631.55
2019-05-29T04:40:54.555Z,96634.66
2019-05-29T04:43:20.385Z,96631.92
2019-05-29T04:45:46.216Z,96643.67
2019-05-29T04:48:12.036Z,96650.19
2019-05-29T04:50:40.196Z,96657.23
2019-05-29T04:53:05.647Z,96662.52
2019-05-29T04:55:32.689Z,96662.52
2019-05-29T04:57:58.752Z,96668.58
2019-05-29T05:00:24.600Z,96666.71
2019-05-29T05:02:50.498Z,96668.64
2019-05-29T05:05:19.414Z,96671.06
2019-05-29T05:07:44.085Z,96670.66
2019-05-29T05:10:10.524Z,96681.38
2019-05-29T05:12:37.735Z,96684.65
2019-05-29T05:15:04.767Z,96684.65
2019-05-29T05:17:31.739Z,96694.67
2019-05-29T05:19:57.879Z,96696.00
2019-05-29T05:22:23.721Z,96696.00
2019-05-29T05:24:49.565Z,96698.08
2019-05-29T05:27:15.424Z,96704.39
2019-05-29T05:29:41.273Z,96713.16
2019-05-29T05:32:07.230Z,96714.03
2019-05-29T05:34:33.106Z,96711.08
2019-05-29T05:36:58.943Z,96722.80
2019-05-29T05:39:24.816Z,96716.59
2019-05-29T05:41:51.017Z,96726.94
2019-05-29T05:44:16.877Z,96732.45
2019-05-29T05:46:42.707Z,96732.45
2019-05-29T05:49:08.855Z,96737.59
2019-05-29T05:51:38.233Z,96735.72
2019-05-29T05:54:04.271Z,96729.72
2019-05-29T05:56:31.372Z,96747.35
2019-05-29T05:58:57.300Z,96747.35
2019-05-29T06:01:23.224Z,96753.81
2019-05-29T06:03:49.079Z,96763.20
2019-05-29T06:06:14.914Z,96768.48
2019-05-29T06:08:40.755Z,96777.19
2019-05-29T06:11:06.592Z,96780.10
2019-05-29T06:13:32.448Z,96780.00
2019-05-29T06:15:58.328Z,96788.62
2019-05-29T06:18:24.175Z,96790.26
2019-05-29T06:20:50.007Z,96794.77
2019-05-29T06:23:15.873Z,96799.05
2019-05-29T06:25:42.486Z,96796.99
2019-05-29T06:28:09.495Z,96802.92
2019-05-29T06:30:36.571Z,96802.92
2019-05-29T06:33:03.344Z,96807.64
2019-05-29T06:35:29.226Z,96808.96
2019-05-29T06:37:55.072Z,96808.96
2019-05-29T06:40:30.529Z,96809.52
2019-05-29T06:42:56.403Z,96809.97
2019-05-29T06:45:26.069Z,96819.91
2019-05-29T06:47:51.955Z,96820.23
2019-05-29T06:50:17.815Z,96820.23
2019-05-29T06:52:43.679Z,96833.16
2019-05-29T06:55:09.533Z,96835.27
2019-05-29T06:57:36.030Z,96842.61
2019-05-29T07:00:05.070Z,96854.41
2019-05-29T07:02:31.872Z,96847.14
2019-05-29T07:04:57.869Z,96869.66
2019-05-29T07:07:23.731Z,96869.66
2019-05-29T07:09:49.569Z,96884.42
2019-05-29T07:12:15.428Z,96888.23
2019-05-29T07:14:42.406Z,96890.65
2019-05-29T07:17:08.416Z,96902.98
2019-05-29T07:19:47.573Z,96902.98
2019-05-29T07:22:02.113Z,96907.98
2019-05-29T07:24:27.953Z,96908.91
2019-05-29T07:26:53.804Z,96913.03
2019-05-29T07:29:19.629Z,96918.62
2019-05-29T07:31:45.568Z,96916.61
2019-05-29T07:34:11.409Z,96926.89
2019-05-29T07:36:37.910Z,96927.03
2019-05-29T07:39:05.623Z,96935.19
2019-05-29T07:41:31.498Z,96929.98
2019-05-29T07:43:57.343Z,96929.98
2019-05-29T07:46:23.182Z,96935.91
2019-05-29T07:48:50.306Z,96940.58
2019-05-29T07:51:16.594Z,96950.69
2019-05-29T07:53:42.431Z,96950.61
2019-05-29T07:56:21.627Z,96957.61
2019-05-29T07:58:36.043Z,96951.70
2019-05-29T08:01:12.909Z,96951.70
2019-05-29T08:03:29.684Z,96959.47
2019-05-29T08:05:55.541Z,96959.47
2019-05-29T08:08:21.390Z,96954.40
2019-05-29T08:10:47.611Z,96964.91
2019-05-29T08:13:13.617Z,96972.00
2019-05-29T08:15:54.146Z,96972.39
2019-05-29T08:18:07.218Z,96976.60
2019-05-29T08:20:33.063Z,96978.84
2019-05-29T08:22:58.929Z,96980.95
2019-05-29T08:25:24.777Z,96978.00
2019-05-29T08:27:50.849Z,96983.91
2019-05-29T08:30:17.196Z,96981.48
2019-05-29T08:32:43.558Z,96981.48
2019-05-29T08:35:12.148Z,96980.95
2019-05-29T08:37:38.007Z,97003.53
2019-05-29T08:40:05.869Z,97003.53
2019-05-29T08:42:31.721Z,97005.14
2019-05-29T08:44:57.571Z,96999.31
2019-05-29T08:47:23.475Z,97009.19
2019-05-29T08:49:52.505Z,97006.95
2019-05-29T08:52:17.143Z,97013.84
2019-05-29T08:54:43.982Z,97013.84
2019-05-29T08:57:09.967Z,97012.83
2019-05-29T08:59:35.871Z,97012.83
2019-05-29T09:02:01.756Z,97020.69
2019-05-29T09:04:27.649Z,97030.93
2019-05-29T09:06:53.648Z,97027.35
2019-05-29T09:09:19.651Z,97056.63
2019-05-29T09:11:45.505Z,97034.84
2019-05-29T09:14:11.365Z,97035.93
2019-05-29T09:16:37.203Z,97041.42
2019-05-29T09:19:03.190Z,97045.75
2019-05-29T09:21:29.039Z,97035.73
2019-05-29T09:23:58.494Z,97040.28
2019-05-29T09:26:25.541Z,97011.99
2019-05-29T09:28:50.419Z,97049.23
2019-05-29T09:31:17.360Z,97050.63
2019-05-29T09:33:44.021Z,97053.92
2019-05-29T09:36:09.886Z,97062.36
2019-05-29T09:38:35.722Z,97068.77
2019-05-29T09:41:01.569Z,97067.95
2019-05-29T09:43:30.680Z,97073.20
2019-05-29T09:45:55.264Z,97078.42
2019-05-29T09:48:24.792Z,97074.39
2019-05-29T09:50:50.670Z,97074.66
2019-05-29T09:53:16.739Z,97080.39
2019-05-29T09:55:42.696Z,97089.18
2019-05-29T09:58:08.555Z,97085.89
2019-05-29T10:00:34.410Z,97089.17
2019-05-29T10:03:01.437Z,97087.02
2019-05-29T10:05:27.406Z,97086.80
2019-05-29T10:07:54.529Z,97086.80
2019-05-29T10:10:21.105Z,97097.13
2019-05-29T10:12:46.948Z,97094.75
2019-05-29T10:15:13.395Z,97092.56
2019-05-29T10:17:39.327Z,97092.34
2019-05-29T10:20:09.976Z,97096.95
2019-05-29T10:22:36.238Z,97094.47
2019-05-29T10:25:05.793Z,97095.42
2019-05-29T10:27:31.774Z,97093.42
2019-05-29T10:29:57.629Z,97105.21
2019-05-29T10:32:23.469Z,97096.26
2019-05-29T10:34:50.525Z,97100.18
2019-05-29T10:37:18.314Z,97102.73
2019-05-29T10:39:44.734Z,97101.25
2019-05-29T10:42:10.827Z,97103.61
2019-05-29T10:44:36.690Z,97112.58
2019-05-29T10:47:02.635Z,97111.58
2019-05-29T10:49:28.473Z,97112.34
2019-05-29T10:52:12.898Z,97115.91
2019-05-29T10:54:22.092Z,97111.66
2019-05-29T10:56:48.775Z,97114.41
2019-05-29T10:59:14.810Z,97109.70
2019-05-29T11:01:40.658Z,97113.20
2019-05-29T11:04:06.527Z,97105.49
2019-05-29T11:06:32.508Z,97115.36
2019-05-29T11:08:58.388Z,97120.72
2019-05-29T11:11:24.311Z,97121.00
2019-05-29T11:13:50.571Z,97123.42
2019-05-29T11:16:16.602Z,97124.62
2019-05-29T11:18:42.572Z,97123.30
2019-05-29T11:21:08.404Z,97130.70
2019-05-29T11:23:34.257Z,97126.61
2019-05-29T11:26:00.179Z,97123.18
2019-05-29T11:28:26.037Z,97127.84
2019-05-29T11:30:53.277Z,97128.67
2019-05-29T11:33:19.657Z,97126.20
2019-05-29T11:35:57.738Z,97128.56
2019-05-29T11:38:13.306Z,97129.89
2019-05-29T11:40:39.207Z,97132.42
2019-05-29T11:43:05.109Z,97140.19
2019-05-29T11:45:34.531Z,97138.05
2019-05-29T11:48:01.188Z,97141.81
2019-05-29T11:50:26.467Z,97148.83
2019-05-29T11:52:52.430Z,97144.30
2019-05-29T11:55:18.435Z,97147.34
2019-05-29T11:57:44.271Z,97147.02
2019-05-29T12:00:19.767Z,97144.88
2019-05-29T12:02:41.790Z,97143.56
2019-05-29T12:05:08.430Z,97147.85
2019-05-29T12:07:34.287Z,97149.58
2019-05-29T12:10:00.474Z,97149.24
2019-05-29T12:12:27.909Z,97152.01
2019-05-29T12:15:04.952Z,97149.33
2019-05-29T12:17:21.635Z,97147.75
2019-05-29T12:19:47.624Z,97146.41
2019-05-29T12:22:13.441Z,97151.52
2019-05-29T12:24:39.299Z,97150.58
2019-05-29T12:27:05.150Z,97155.01
2019-05-29T12:29:31.005Z,97153.19
2019-05-29T12:31:57.110Z,97153.47
2019-05-29T12:34:22.995Z,97158.80
2019-05-29T12:36:48.828Z,97155.80
2019-05-29T12:39:14.689Z,97157.22
2019-05-29T12:41:40.511Z,97158.27
2019-05-29T12:44:06.444Z,97164.98
2019-05-29T12:46:32.339Z,97153.61
2019-05-29T12:48:59.452Z,97157.23
2019-05-29T12:51:25.514Z,97161.56
2019-05-29T12:53:51.510Z,97161.38
2019-05-29T12:56:17.375Z,97153.91
2019-05-29T12:58:43.204Z,97161.66
2019-05-29T13:01:09.053Z,97162.58
2019-05-29T13:03:34.892Z,97164.78
2019-05-29T13:06:00.766Z,97165.91
2019-05-29T13:08:26.633Z,97170.99
2019-05-29T13:10:52.483Z,97168.55
2019-05-29T13:13:18.349Z,97164.38
2019-05-29T13:15:44.195Z,97166.84
2019-05-29T13:18:10.356Z,97172.72
2019-05-29T13:20:36.287Z,97172.49
2019-05-29T13:23:04.508Z,97167.89
2019-05-29T13:25:30.009Z,97172.28
2019-05-29T13:27:58.952Z,97169.78
2019-05-29T13:30:23.970Z,97176.70
2019-05-29T13:32:49.856Z,97174.06
2019-05-29T13:35:16.720Z,97173.28
2019-05-29T13:37:49.556Z,97171.09
2019-05-29T13:40:15.988Z,97164.75
2019-05-29T13:42:41.936Z,97169.50
2019-05-29T13:45:17.648Z,97176.73
2019-05-29T13:47:36.224Z,97167.52
2019-05-29T13:50:09.338Z,97170.34
2019-05-29T13:52:32.167Z,97178.20
2019-05-29T13:54:59.219Z,97173.53
2019-05-29T13:57:25.189Z,97175.11
2019-05-29T13:59:51.063Z,97172.32
2019-05-29T14:02:16.936Z,97170.34
2019-05-29T14:04:42.791Z,97175.93
2019-05-29T14:07:08.941Z,97183.44
2019-05-29T14:09:34.987Z,97184.44
2019-05-29T14:12:01.063Z,97189.06
2019-05-29T14:14:26.924Z,97190.52
2019-05-29T14:16:52.733Z,97189.31
2019-05-29T14:19:18.721Z,97191.73
2019-05-29T14:21:44.647Z,97190.65
2019-05-29T14:24:26.299Z,97190.52
2019-05-29T14:26:38.274Z,97192.95
2019-05-29T14:29:05.859Z,97188.77
2019-05-29T14:31:32.012Z,97196.03
2019-05-29T14:33:57.864Z,97192.38
2019-05-29T14:36:23.909Z,97194.48
2019-05-29T14:38:49.806Z,97199.88
2019-05-29T14:41:15.642Z,97199.03
2019-05-29T14:43:41.610Z,97199.69
2019-05-29T14:46:08.129Z,97197.73
2019-05-29T14:48:34.061Z,97197.84
2019-05-29T14:50:59.891Z,97201.02
2019-05-29T14:53:25.736Z,97203.81
2019-05-29T14:55:51.583Z,97201.34
2019-05-29T14:58:17.551Z,97202.61
2019-05-29T15:00:43.369Z,97209.38
2019-05-29T15:03:09.360Z,97217.47
2019-05-29T15:05:35.213Z,97212.81
2019-05-29T15:08:01.177Z,97213.05
2019-05-29T15:10:27.825Z,97211.77
2019-05-29T15:12:57.807Z,97220.09
2019-05-29T15:15:21.717Z,97217.72
2019-05-29T15:17:47.585Z,97211.16
2019-05-29T15:20:16.114Z,97218.70
2019-05-29T15:22:41.417Z,97217.54
2019-05-29T15:25:17.396Z,97223.69
2019-05-29T15:27:36.070Z,97224.81
2019-05-29T15:30:03.500Z,97222.24
2019-05-29T15:32:29.361Z,97219.09
2019-05-29T15:34:55.205Z,97224.98
2019-05-29T15:37:21.191Z,97226.30
2019-05-29T15:39:47.022Z,97219.75
2019-05-29T15:42:12.978Z,97224.02
2019-05-29T15:44:38.835Z,97226.88
2019-05-29T15:47:04.677Z,97228.88
2019-05-29T15:49:30.514Z,97235.39
2019-05-29T15:51:56.369Z,97234.14
2019-05-29T15:54:22.293Z,97237.14
2019-05-29T15:56:48.184Z,97237.70
2019-05-29T15:59:14.919Z,97245.11
2019-05-29T16:01:41.814Z,97232.77
2019-05-29T16:04:07.709Z,97239.69
2019-05-29T16:06:33.508Z,97245.33
2019-05-29T16:08:59.381Z,97241.55
2019-05-29T16:11:25.706Z,97243.80
2019-05-29T16:13:51.683Z,97253.34
2019-05-29T16:16:17.535Z,97259.94
2019-05-29T16:18:43.357Z,97262.70
2019-05-29T16:21:10.512Z,97262.16
2019-05-29T16:23:36.600Z,97259.59
2019-05-29T16:26:02.706Z,97261.78
2019-05-29T16:28:28.552Z,97268.02
2019-05-29T16:30:54.399Z,97262.27
2019-05-29T16:33:20.380Z,97260.67
2019-05-29T16:35:46.233Z,97268.25
2019-05-29T16:38:13.904Z,97262.67
2019-05-29T16:40:39.940Z,97267.03
2019-05-29T16:43:05.899Z,97278.08
2019-05-29T16:45:31.731Z,97274.05
2019-05-29T16:47:57.607Z,97272.61
2019-05-29T16:50:23.486Z,97277.83
2019-05-29T16:52:49.389Z,97275.94
2019-05-29T16:55:16.978Z,97270.69
2019-05-29T16:57:43.181Z,97268.92
2019-05-29T17:00:10.735Z,97281.48
2019-05-29T17:02:37.388Z,97278.91
2019-05-29T17:05:05.223Z,97276.41
2019-05-29T17:07:31.064Z,97286.06
2019-05-29T17:09:56.898Z,97287.66
2019-05-29T17:12:22.734Z,97287.84
2019-05-29T17:14:48.579Z,97286.40
2019-05-29T17:17:15.355Z,97293.83
2019-05-29T17:19:41.508Z,97244.38
2019-05-29T17:22:07.447Z,97288.17
2019-05-29T17:24:33.315Z,97291.53
2019-05-29T17:26:59.166Z,97291.15
2019-05-29T17:29:25.208Z,97300.23
2019-05-29T17:31:51.057Z,97293.19
2019-05-29T17:34:16.977Z,97296.39
2019-05-29T17:36:42.871Z,97297.80
2019-05-29T17:39:08.823Z,97297.63
2019-05-29T17:41:34.887Z,97302.27
2019-05-29T17:44:00.727Z,97303.37
2019-05-29T17:46:26.566Z,97304.03
2019-05-29T17:48:52.443Z,97307.05
2019-05-29T17:51:19.633Z,97308.09
2019-05-29T17:53:45.695Z,97307.88
2019-05-29T17:56:25.239Z,97310.41
2019-05-29T17:58:39.322Z,97313.00
2019-05-29T18:01:05.245Z,97313.66
2019-05-29T18:03:31.099Z,97322.48
2019-05-29T18:05:56.937Z,97321.38
2019-05-29T18:08:22.975Z,97322.16
2019-05-29T18:10:48.916Z,97320.13
2019-05-29T18:13:14.742Z,97330.22
2019-05-29T18:15:40.817Z,97326.78
2019-05-29T18:18:06.834Z,97328.33
2019-05-29T18:20:32.775Z,97328.78
2019-05-29T18:22:58.787Z,97333.20
2019-05-29T18:25:25.945Z,97335.95
2019-05-29T18:27:51.884Z,97334.20
2019-05-29T18:30:18.209Z,97335.90
2019-05-29T18:32:44.156Z,97340.30
2019-05-29T18:35:10.435Z,97344.86
2019-05-29T18:37:36.318Z,97345.52
2019-05-29T18:40:07.362Z,97356.39
2019-05-29T18:42:31.157Z,97346.64
2019-05-29T18:44:57.010Z,97346.34
2019-05-29T18:47:23.102Z,97347.31
2019-05-29T18:49:49.042Z,97349.75
2019-05-29T18:52:14.908Z,97351.72
2019-05-29T18:54:40.772Z,97354.95
2019-05-29T18:57:15.376Z,97361.48
2019-05-29T18:59:34.426Z,97359.19
2019-05-29T19:02:00.283Z,97367.19
2019-05-29T19:04:26.128Z,97368.75
2019-05-29T19:06:51.998Z,97367.70
2019-05-29T19:09:17.847Z,97371.05
2019-05-29T19:11:43.693Z,97381.70
2019-05-29T19:14:09.549Z,97382.71
2019-05-29T19:16:36.420Z,97381.78
2019-05-29T19:19:03.790Z,97384.69
2019-05-29T19:21:30.593Z,97388.98
2019-05-29T19:23:56.544Z,97390.36
2019-05-29T19:26:22.745Z,97395.17
2019-05-29T19:28:48.612Z,97401.37
2019-05-29T19:31:14.455Z,97402.31
2019-05-29T19:33:40.346Z,97411.90
2019-05-29T19:36:06.211Z,97412.92
2019-05-29T19:38:32.102Z,97415.41
2019-05-29T19:40:58.164Z,97418.56
2019-05-29T19:43:24.220Z,97425.00
2019-05-29T19:45:50.130Z,97432.59
2019-05-29T19:48:15.997Z,97428.88
2019-05-29T19:50:41.920Z,97435.79
2019-05-29T19:53:07.801Z,97430.91
2019-05-29T19:55:37.005Z,97439.34
2019-05-29T19:58:02.369Z,97438.31
2019-05-29T20:00:28.229Z,97445.48
2019-05-29T20:02:54.087Z,97444.61
2019-05-29T20:05:19.974Z,97449.01
2019-05-29T20:07:45.808Z,97451.94
2019-05-29T20:10:11.848Z,97455.19
2019-05-29T20:12:38.215Z,97453.73
2019-05-29T20:15:05.924Z,97460.54
2019-05-29T20:17:32.076Z,97461.03
2019-05-29T20:19:57.981Z,97464.08
2019-05-29T20:22:23.815Z,97466.53
2019-05-29T20:24:49.691Z,97468.17
2019-05-29T20:27:15.527Z,97473.47
2019-05-29T20:29:42.636Z,97468.11
2019-05-29T20:32:08.656Z,97471.54
2019-05-29T20:34:34.718Z,97471.92
2019-05-29T20:37:00.758Z,97481.92
2019-05-29T20:39:26.660Z,97476.77
2019-05-29T20:41:52.544Z,97480.20
2019-05-29T20:44:18.432Z,97487.18
2019-05-29T20:46:44.324Z,97495.81
2019-05-29T20:49:10.199Z,97487.38
2019-05-29T20:51:36.203Z,97492.27
2019-05-29T20:54:02.115Z,97490.22
2019-05-29T20:56:27.994Z,97488.45
2019-05-29T20:58:54.167Z,97495.46
2019-05-29T21:01:20.183Z,97495.04
2019-05-29T21:03:46.086Z,97500.39
2019-05-29T21:06:11.926Z,97500.39
2019-05-29T21:08:38.927Z,97499.02
2019-05-29T21:11:05.178Z,97501.44
2019-05-29T21:13:31.049Z,97501.44
2019-05-29T21:15:57.015Z,97502.17
2019-05-29T21:18:22.906Z,97504.34
2019-05-29T21:20:48.814Z,97510.58
2019-05-29T21:23:14.684Z,97508.37
2019-05-29T21:25:40.779Z,97510.38
2019-05-29T21:28:06.608Z,97509.06
2019-05-29T21:30:32.465Z,97506.17
2019-05-29T21:32:58.326Z,97516.77
2019-05-29T21:35:24.234Z,97504.86
2019-05-29T21:37:50.098Z,97516.05
2019-05-29T21:40:16.256Z,97506.80
2019-05-29T21:42:42.845Z,97515.56
2019-05-29T21:45:09.038Z,97504.99
2019-05-29T21:47:38.877Z,97524.16
2019-05-29T21:50:05.454Z,97524.16
2019-05-29T21:52:31.301Z,97517.31
2019-05-29T21:54:57.179Z,97524.20
2019-05-29T21:57:23.064Z,97525.29
2019-05-29T21:59:49.034Z,97525.88
2019-05-29T22:02:15.022Z,97522.86
2019-05-29T22:04:40.872Z,97523.98
2019-05-29T22:07:06.926Z,97527.84
2019-05-29T22:09:32.907Z,97527.84
2019-05-29T22:11:58.772Z,97526.99
2019-05-29T22:14:24.609Z,97529.23
2019-05-29T22:16:50.870Z,97526.69
2019-05-29T22:19:16.925Z,97534.88
2019-05-29T22:21:42.772Z,97528.88
2019-05-29T22:24:08.624Z,97533.74
2019-05-29T22:26:34.476Z,97542.77
2019-05-29T22:29:15.868Z,97536.78
2019-05-29T22:31:28.256Z,97536.05
2019-05-29T22:33:55.342Z,97536.05
2019-05-29T22:36:21.685Z,97517.20
2019-05-29T22:38:47.926Z,97527.91
2019-05-29T22:41:13.794Z,97527.91
2019-05-29T22:43:41.790Z,97524.48
2019-05-29T22:46:07.667Z,97508.80
2019-05-29T22:48:33.959Z,97508.80
2019-05-29T22:50:59.939Z,97522.46
2019-05-29T22:53:25.923Z,97520.44
2019-05-29T22:55:51.772Z,97522.92
2019-05-29T22:58:17.980Z,97520.41
2019-05-29T23:00:43.829Z,97517.84
2019-05-29T23:03:09.693Z,97519.66
2019-05-29T23:05:35.543Z,97514.39
2019-05-29T23:08:02.553Z,97519.56
2019-05-29T23:10:28.559Z,97519.09
2019-05-29T23:12:54.562Z,97519.09
2019-05-29T23:15:20.435Z,97526.55
2019-05-29T23:17:46.317Z,97526.55
2019-05-29T23:20:12.230Z,97531.62
2019-05-29T23:22:38.162Z,97526.64
2019-05-29T23:25:04.415Z,97524.01
2019-05-29T23:27:30.256Z,97529.57
2019-05-29T23:29:56.827Z,97529.57
2019-05-29T23:32:22.761Z,97535.70
2019-05-29T23:34:48.600Z,97535.70
2019-05-29T23:37:14.447Z,97536.45
2019-05-29T23:39:40.293Z,97540.70
2019-05-29T23:42:06.120Z,97537.31
2019-05-29T23:44:31.994Z,97543.25
2019-05-29T23:46:57.826Z,97536.90
2019-05-29T23:49:23.694Z,97537.30
2019-05-29T23:51:49.563Z,97534.25
2019-05-29T23:54:15.381Z,97539.30
2019-05-29T23:56:41.264Z,97540.98
2019-05-29T23:59:07.082Z,97537.98
